createdAt,value
2023-05-23T00:01:09.294Z,22.50
2023-05-23T00:03:37.506Z,21.35
2023-05-23T00:06:07.251Z,21.67
2023-05-23T00:08:35.053Z,22.73
2023-05-23T00:11:02.531Z,19.80
2023-05-23T00:13:30.163Z,23.67
2023-05-23T00:15:57.653Z,22.13
2023-05-23T00:18:25.473Z,22.95
2023-05-23T00:20:53.763Z,20.48
2023-05-23T00:23:22.561Z,26.90
2023-05-23T00:25:53.010Z,22.90
2023-05-23T00:28:21.102Z,25.77
2023-05-23T00:30:51.904Z,24.08
2023-05-23T00:33:22.318Z,23.33
2023-05-23T00:35:50.147Z,24.40
2023-05-23T00:38:18.096Z,23.05
2023-05-23T00:40:45.757Z,25.58
2023-05-23T00:43:13.247Z,23.60
2023-05-23T00:45:40.888Z,25.45
2023-05-23T00:48:09.067Z,28.17
2023-05-23T00:50:36.711Z,28.33
2023-05-23T00:53:04.700Z,27.38
2023-05-23T00:55:34.692Z,25.73
2023-05-23T00:58:02.674Z,24.30
2023-05-23T01:00:30.422Z,23.55
2023-05-23T01:02:58.268Z,27.45
2023-05-23T01:05:25.839Z,25.13
2023-05-23T01:07:55.804Z,25.60
2023-05-23T01:10:31.087Z,27.25
2023-05-23T01:12:58.609Z,24.80
2023-05-23T01:15:51.657Z,25.00
2023-05-23T01:18:42.282Z,24.52
2023-05-23T01:21:22.355Z,26.05
2023-05-23T01:24:05.215Z,25.05
2023-05-23T01:26:51.977Z,24.95
2023-05-23T01:29:32.222Z,30.90
2023-05-23T01:32:01.049Z,26.35
2023-05-23T01:34:30.786Z,24.20
2023-05-23T01:36:59.624Z,23.60
2023-05-23T01:39:27.214Z,30.80
2023-05-23T01:41:54.951Z,25.98
2023-05-23T01:44:22.878Z,24.77
2023-05-23T01:46:50.547Z,26.20
2023-05-23T01:49:19.635Z,24.98
2023-05-23T01:51:47.775Z,28.67
2023-05-23T01:54:17.214Z,33.80
2023-05-23T01:56:45.034Z,27.30
2023-05-23T01:59:12.988Z,27.90
2023-05-23T02:01:41.636Z,31.45
2023-05-23T02:04:09.652Z,27.38
2023-05-23T02:06:37.216Z,28.95
2023-05-23T02:09:04.732Z,29.27
2023-05-23T02:11:32.517Z,27.92
2023-05-23T02:14:00.109Z,25.58
2023-05-23T02:16:27.633Z,30.40
2023-05-23T02:18:56.497Z,29.27
2023-05-23T02:21:24.575Z,28.33
2023-05-23T02:23:52.189Z,30.20
2023-05-23T02:26:19.736Z,31.10
2023-05-23T02:28:47.276Z,28.30
2023-05-23T02:31:17.286Z,32.22
2023-05-23T02:33:45.108Z,40.08
2023-05-23T02:36:12.955Z,36.83
2023-05-23T02:38:40.598Z,36.35
2023-05-23T02:41:08.125Z,32.38
2023-05-23T02:43:35.776Z,30.48
2023-05-23T02:46:03.606Z,35.03
2023-05-23T02:48:31.090Z,36.50
2023-05-23T02:50:58.701Z,33.95
2023-05-23T02:53:26.325Z,38.40
2023-05-23T02:55:54.095Z,36.45
2023-05-23T02:58:21.644Z,35.97
2023-05-23T03:00:49.153Z,45.33
2023-05-23T03:03:17.746Z,34.35
2023-05-23T03:05:45.516Z,34.03
2023-05-23T03:08:13.041Z,37.83
2023-05-23T03:10:40.853Z,34.90
2023-05-23T03:13:08.390Z,32.90
2023-05-23T03:15:36.439Z,37.90
2023-05-23T03:18:03.989Z,32.25
2023-05-23T03:20:32.478Z,31.15
2023-05-23T03:23:00.002Z,30.70
2023-05-23T03:25:27.430Z,30.45
2023-05-23T03:27:56.067Z,31.05
2023-05-23T03:30:23.610Z,30.15
2023-05-23T03:32:51.163Z,32.75
2023-05-23T03:35:18.648Z,28.70
2023-05-23T03:37:46.265Z,28.00
2023-05-23T03:40:13.899Z,27.65
2023-05-23T03:42:41.381Z,27.33
2023-05-23T03:45:10.530Z,24.95
2023-05-23T03:47:38.150Z,27.42
2023-05-23T03:50:06.559Z,25.80
2023-05-23T03:52:34.568Z,22.92
2023-05-23T03:55:02.312Z,25.40
2023-05-23T03:57:29.986Z,24.65
2023-05-23T03:59:57.472Z,21.20
2023-05-23T04:02:25.077Z,20.17
2023-05-23T04:04:54.185Z,23.80
2023-05-23T04:07:21.821Z,19.63
2023-05-23T04:09:49.281Z,20.98
2023-05-23T04:12:16.855Z,20.38
2023-05-23T04:14:44.338Z,19.48
2023-05-23T04:17:12.321Z,15.10
2023-05-23T04:19:40.062Z,22.92
2023-05-23T04:22:07.687Z,20.52
2023-05-23T04:24:35.178Z,20.42
2023-05-23T04:27:02.710Z,17.80
2023-05-23T04:29:31.810Z,14.23
2023-05-23T04:32:00.941Z,18.20
2023-05-23T04:34:29.187Z,16.10
2023-05-23T04:36:57.843Z,17.27
2023-05-23T04:39:26.171Z,17.92
2023-05-23T04:42:24.926Z,19.38
2023-05-23T04:45:16.062Z,18.58
2023-05-23T04:48:08.185Z,15.88
2023-05-23T04:50:47.864Z,15.77
2023-05-23T04:53:15.704Z,19.38
2023-05-23T04:55:43.626Z,19.38
2023-05-23T04:58:15.532Z,19.58
2023-05-23T05:00:43.593Z,18.05
2023-05-23T05:03:12.151Z,17.30
2023-05-23T05:05:43.729Z,18.00
2023-05-23T05:08:11.696Z,21.38
2023-05-23T05:10:41.788Z,20.05
2023-05-23T05:13:09.724Z,26.58
2023-05-23T05:15:49.628Z,20.92
2023-05-23T05:18:17.946Z,18.92
2023-05-23T05:20:47.295Z,23.17
2023-05-23T05:23:16.284Z,22.77
2023-05-23T05:25:43.931Z,21.83
2023-05-23T05:28:12.431Z,31.15
2023-05-23T05:30:46.724Z,23.80
2023-05-23T05:33:15.173Z,23.90
2023-05-23T05:35:43.461Z,20.50
2023-05-23T05:38:11.393Z,17.05
2023-05-23T05:40:40.420Z,23.33
2023-05-23T05:43:08.137Z,22.67
2023-05-23T05:45:35.982Z,25.95
2023-05-23T05:48:03.719Z,18.35
2023-05-23T05:50:31.350Z,15.32
2023-05-23T05:52:59.462Z,18.80
2023-05-23T05:55:26.978Z,14.02
2023-05-23T05:57:55.977Z,17.10
2023-05-23T06:00:25.291Z,17.25
2023-05-23T06:03:00.001Z,21.60
2023-05-23T06:05:50.361Z,15.85
2023-05-23T06:08:17.860Z,25.95
2023-05-23T06:10:45.394Z,15.77
2023-05-23T06:13:12.878Z,16.15
2023-05-23T06:15:43.269Z,13.48
2023-05-23T06:18:11.974Z,16.90
2023-05-23T06:20:40.645Z,13.98
2023-05-23T06:23:12.719Z,15.30
2023-05-23T06:25:40.936Z,19.55
2023-05-23T06:28:09.062Z,14.55
2023-05-23T06:30:38.640Z,15.48
2023-05-23T06:33:08.690Z,17.08
2023-05-23T06:35:36.330Z,13.02
2023-05-23T06:38:03.931Z,14.30
2023-05-23T06:40:31.514Z,14.05
2023-05-23T06:42:59.485Z,19.05
2023-05-23T06:45:40.721Z,15.73
2023-05-23T06:48:11.806Z,17.23
2023-05-23T06:50:41.052Z,18.05
2023-05-23T06:53:10.024Z,17.48
2023-05-23T06:55:37.586Z,14.57
2023-05-23T06:58:06.847Z,16.58
2023-05-23T07:00:36.260Z,17.23
2023-05-23T07:03:11.807Z,13.45
2023-05-23T07:05:41.382Z,18.88
2023-05-23T07:08:11.452Z,16.10
2023-05-23T07:10:41.987Z,16.13
2023-05-23T07:13:23.378Z,15.70
2023-05-23T07:15:50.962Z,21.90
2023-05-23T07:18:19.348Z,17.20
2023-05-23T07:20:46.955Z,17.65
2023-05-23T07:23:17.933Z,17.85
2023-05-23T07:26:00.986Z,15.45
2023-05-23T07:28:37.980Z,15.18
2023-05-23T07:31:05.707Z,19.10
2023-05-23T07:33:34.624Z,20.95
2023-05-23T07:36:04.844Z,34.13
2023-05-23T07:38:32.409Z,21.60
2023-05-23T07:41:10.797Z,23.52
2023-05-23T07:43:41.053Z,25.10
2023-05-23T07:46:08.823Z,25.00
2023-05-23T07:48:37.244Z,28.05
2023-05-23T07:51:04.918Z,22.52
2023-05-23T07:53:32.640Z,21.27
2023-05-23T07:56:00.509Z,23.25
2023-05-23T07:58:33.240Z,21.55
2023-05-23T08:01:00.781Z,19.25
2023-05-23T08:03:50.938Z,25.77
2023-05-23T08:06:24.219Z,24.67
2023-05-23T08:08:51.801Z,27.08
2023-05-23T08:11:19.310Z,23.60
2023-05-23T08:13:51.146Z,26.05
2023-05-23T08:16:47.981Z,27.15
2023-05-23T08:19:22.449Z,29.67
2023-05-23T08:21:50.593Z,25.90
2023-05-23T08:24:18.114Z,29.15
2023-05-23T08:26:45.941Z,25.58
2023-05-23T08:29:15.133Z,32.15
2023-05-23T08:31:43.826Z,26.58
2023-05-23T08:34:14.269Z,31.25
2023-05-23T08:36:43.232Z,25.73
2023-05-23T08:39:15.771Z,27.45
2023-05-23T08:41:50.506Z,25.75
2023-05-23T08:44:18.138Z,27.50
2023-05-23T08:46:53.436Z,32.53
2023-05-23T08:49:39.899Z,28.00
2023-05-23T08:52:12.804Z,26.27
2023-05-23T08:54:44.488Z,27.55
2023-05-23T08:57:14.104Z,24.38
2023-05-23T08:59:47.507Z,26.65
2023-05-23T09:02:16.896Z,31.75
2023-05-23T09:04:44.442Z,29.17
2023-05-23T09:07:19.073Z,26.73
2023-05-23T09:09:48.685Z,24.50
2023-05-23T09:12:17.219Z,25.83
2023-05-23T09:14:47.175Z,22.05
2023-05-23T09:17:22.486Z,20.83
2023-05-23T09:19:52.528Z,24.02
2023-05-23T09:22:39.783Z,22.30
2023-05-23T09:25:13.205Z,26.02
2023-05-23T09:27:45.722Z,20.60
2023-05-23T09:30:15.784Z,26.05
2023-05-23T09:32:44.792Z,23.75
2023-05-23T09:35:14.240Z,24.20
2023-05-23T09:37:47.093Z,27.35
2023-05-23T09:40:15.516Z,24.70
2023-05-23T09:42:54.028Z,26.48
2023-05-23T09:45:21.637Z,21.38
2023-05-23T09:47:53.021Z,29.55
2023-05-23T09:50:21.402Z,26.00
2023-05-23T09:52:49.371Z,25.75
2023-05-23T09:55:17.259Z,22.17
2023-05-23T09:57:45.845Z,21.23
2023-05-23T10:00:13.952Z,25.58
2023-05-23T10:03:13.140Z,24.00
2023-05-23T10:05:48.802Z,24.23
2023-05-23T10:08:20.362Z,22.73
2023-05-23T10:10:56.855Z,26.38
2023-05-23T10:13:28.692Z,19.48
2023-05-23T10:16:02.888Z,21.92
2023-05-23T10:18:33.087Z,23.08
2023-05-23T10:21:09.665Z,15.68
2023-05-23T10:23:38.125Z,15.40
2023-05-23T10:26:06.164Z,16.90
2023-05-23T10:28:33.697Z,19.40
2023-05-23T10:31:01.702Z,20.15
2023-05-23T10:33:36.703Z,17.13
2023-05-23T10:36:12.272Z,15.05
2023-05-23T10:39:06.113Z,20.00
2023-05-23T10:41:37.206Z,19.70
2023-05-23T10:44:32.212Z,18.83
2023-05-23T10:47:04.496Z,16.10
2023-05-23T10:49:46.053Z,17.23
2023-05-23T10:52:16.460Z,11.43
2023-05-23T10:54:52.719Z,14.68
2023-05-23T10:57:30.407Z,14.75
2023-05-23T10:59:57.914Z,13.05
2023-05-23T11:02:29.585Z,11.70
2023-05-23T11:05:24.602Z,14.27
2023-05-23T11:08:43.211Z,16.02
2023-05-23T11:11:14.972Z,12.98
2023-05-23T11:14:03.008Z,12.10
2023-05-23T11:16:33.718Z,14.18
2023-05-23T11:19:19.959Z,11.00
2023-05-23T11:21:53.896Z,12.65
2023-05-23T11:24:22.077Z,9.88
2023-05-23T11:27:02.799Z,12.30
2023-05-23T11:29:30.945Z,11.48
2023-05-23T11:31:58.604Z,10.20
2023-05-23T11:34:26.852Z,13.25
2023-05-23T11:36:57.563Z,10.93
2023-05-23T11:39:25.226Z,6.40
2023-05-23T11:42:05.355Z,7.15
2023-05-23T11:44:32.864Z,9.27
2023-05-23T11:47:05.202Z,9.85
2023-05-23T11:49:38.303Z,10.77
2023-05-23T11:52:07.348Z,9.52
2023-05-23T11:54:35.153Z,10.23
2023-05-23T11:57:03.733Z,9.07
2023-05-23T11:59:31.478Z,11.23
2023-05-23T12:01:58.944Z,10.50
2023-05-23T12:04:27.316Z,10.30
2023-05-23T12:06:55.101Z,10.40
2023-05-23T12:09:22.813Z,12.82
2023-05-23T12:11:50.581Z,8.77
2023-05-23T12:14:18.646Z,9.60
2023-05-23T12:16:49.285Z,8.68
2023-05-23T12:19:17.904Z,8.85
2023-05-23T12:21:47.221Z,9.02
2023-05-23T12:24:16.668Z,13.00
2023-05-23T12:26:53.568Z,9.07
2023-05-23T12:29:35.691Z,9.98
2023-05-23T12:34:33.008Z,11.32
2023-05-23T12:39:36.770Z,15.77
2023-05-23T12:42:11.112Z,15.85
2023-05-23T12:44:41.521Z,13.68
2023-05-23T12:47:09.203Z,17.30
2023-05-23T12:49:37.237Z,15.90
2023-05-23T12:52:04.823Z,13.00
2023-05-23T12:54:32.305Z,12.90
2023-05-23T12:56:59.839Z,15.65
2023-05-23T12:59:27.279Z,15.98
2023-05-23T13:01:55.944Z,15.48
2023-05-23T13:04:23.501Z,17.17
2023-05-23T13:06:51.140Z,12.80
2023-05-23T13:09:18.643Z,15.77
2023-05-23T13:11:46.715Z,14.82
2023-05-23T13:14:14.192Z,13.02
2023-05-23T13:16:42.201Z,14.18
2023-05-23T13:19:09.701Z,14.00
2023-05-23T13:21:37.319Z,16.02
2023-05-23T13:24:05.059Z,19.30
2023-05-23T13:26:32.648Z,13.23
2023-05-23T13:29:00.548Z,15.18
2023-05-23T13:31:28.293Z,13.18
2023-05-23T13:33:56.010Z,11.57
2023-05-23T13:36:23.504Z,14.27
2023-05-23T13:38:51.236Z,11.00
2023-05-23T13:41:18.784Z,9.25
2023-05-23T13:43:46.335Z,15.98
2023-05-23T13:46:14.404Z,14.77
2023-05-23T13:48:41.993Z,15.40
2023-05-23T13:51:09.665Z,15.77
2023-05-23T13:53:37.439Z,12.10
2023-05-23T13:56:05.067Z,11.40
2023-05-23T13:58:33.016Z,15.63
2023-05-23T14:01:00.570Z,18.67
2023-05-23T14:03:28.166Z,13.05
2023-05-23T14:05:55.688Z,14.15
2023-05-23T14:08:23.176Z,12.93
2023-05-23T14:10:50.658Z,16.60
2023-05-23T14:13:18.288Z,13.70
2023-05-23T14:15:46.483Z,13.98
2023-05-23T14:18:14.097Z,15.60
2023-05-23T14:20:41.620Z,13.48
2023-05-23T14:23:09.203Z,13.23
2023-05-23T14:25:37.042Z,10.63
2023-05-23T14:28:04.540Z,12.43
2023-05-23T14:30:32.098Z,11.20
2023-05-23T14:32:59.622Z,11.50
2023-05-23T14:35:27.266Z,10.80
2023-05-23T14:37:54.746Z,11.57
2023-05-23T14:40:22.304Z,10.93
2023-05-23T14:42:49.737Z,11.18
2023-05-23T14:45:18.954Z,8.00
2023-05-23T14:47:46.889Z,12.07
2023-05-23T14:50:14.842Z,8.27
2023-05-23T14:52:42.332Z,8.52
2023-05-23T14:55:09.920Z,9.45
2023-05-23T14:57:37.457Z,7.95
2023-05-23T15:00:05.978Z,7.85
2023-05-23T15:02:33.600Z,8.27
2023-05-23T15:05:01.224Z,10.13
2023-05-23T15:07:28.811Z,9.30
2023-05-23T15:09:56.395Z,10.23
2023-05-23T15:12:24.011Z,9.90
2023-05-23T15:14:51.588Z,8.40
2023-05-23T15:17:20.513Z,8.15
2023-05-23T15:19:48.081Z,9.50
2023-05-23T15:22:31.194Z,7.38
2023-05-23T15:25:03.462Z,8.18
2023-05-23T15:27:30.924Z,9.65
2023-05-23T15:29:58.468Z,11.77
2023-05-23T15:32:26.165Z,9.15
2023-05-23T15:34:53.969Z,6.05
2023-05-23T15:37:21.502Z,9.70
2023-05-23T15:39:49.362Z,6.03
2023-05-23T15:42:16.838Z,10.65
2023-05-23T15:44:44.365Z,9.73
2023-05-23T15:47:11.885Z,11.98
2023-05-23T15:49:39.383Z,8.35
2023-05-23T15:52:06.815Z,8.23
2023-05-23T15:54:34.317Z,8.82
2023-05-23T15:57:01.771Z,10.90
2023-05-23T15:59:29.318Z,6.93
2023-05-23T16:01:57.312Z,9.10
2023-05-23T16:04:24.905Z,9.68
2023-05-23T16:06:52.396Z,10.05
2023-05-23T16:09:20.053Z,9.52
2023-05-23T16:11:47.544Z,9.13
2023-05-23T16:14:15.061Z,8.00
2023-05-23T16:16:42.644Z,12.05
2023-05-23T16:19:10.442Z,7.85
2023-05-23T16:21:37.927Z,8.82
2023-05-23T16:24:06.039Z,7.03
2023-05-23T16:26:33.648Z,5.90
2023-05-23T16:29:01.126Z,7.93
2023-05-23T16:31:29.871Z,8.25
2023-05-23T16:33:58.629Z,8.50
2023-05-23T16:36:26.930Z,8.80
2023-05-23T16:38:55.767Z,11.05
2023-05-23T16:41:23.511Z,8.65
2023-05-23T16:43:51.668Z,7.43
2023-05-23T16:46:20.655Z,7.57
2023-05-23T16:48:48.700Z,6.95
2023-05-23T16:51:16.344Z,8.85
2023-05-23T16:53:43.749Z,10.43
2023-05-23T16:56:11.224Z,12.23
2023-05-23T16:58:38.894Z,9.32
2023-05-23T17:01:07.719Z,10.82
2023-05-23T17:03:35.653Z,7.38
2023-05-23T17:06:03.390Z,8.55
2023-05-23T17:08:30.908Z,8.70
2023-05-23T17:10:58.416Z,10.38
2023-05-23T17:13:26.169Z,12.90
2023-05-23T17:15:53.806Z,8.48
2023-05-23T17:18:21.921Z,11.27
2023-05-23T17:20:49.458Z,9.80
2023-05-23T17:23:19.051Z,10.38
2023-05-23T17:25:46.660Z,11.02
2023-05-23T17:28:14.401Z,9.77
2023-05-23T17:30:41.980Z,7.82
2023-05-23T17:33:11.026Z,11.50
2023-05-23T17:35:38.751Z,8.60
2023-05-23T17:38:06.299Z,9.68
2023-05-23T17:40:33.933Z,9.68
2023-05-23T17:43:01.469Z,11.90
2023-05-23T17:45:28.952Z,13.07
2023-05-23T17:47:58.727Z,17.83
2023-05-23T17:50:26.354Z,15.20
2023-05-23T17:52:53.867Z,13.20
2023-05-23T17:55:21.565Z,12.02
2023-05-23T17:57:49.089Z,16.48
2023-05-23T18:00:17.640Z,10.88
2023-05-23T18:02:45.196Z,14.38
2023-05-23T18:05:13.108Z,10.85
2023-05-23T18:07:40.628Z,10.88
2023-05-23T18:10:09.385Z,10.40
2023-05-23T18:12:37.003Z,8.48
2023-05-23T18:15:04.986Z,10.13
2023-05-23T18:17:32.514Z,9.15
2023-05-23T18:20:00.226Z,8.85
2023-05-23T18:22:30.993Z,10.85
2023-05-23T18:24:58.815Z,9.10
2023-05-23T18:27:26.359Z,11.48
2023-05-23T18:29:53.828Z,8.88
2023-05-23T18:32:21.507Z,12.35
2023-05-23T18:34:49.170Z,10.95
2023-05-23T18:37:16.648Z,10.40
2023-05-23T18:39:44.163Z,10.10
2023-05-23T18:42:11.691Z,13.38
2023-05-23T18:44:39.166Z,13.57
2023-05-23T18:47:06.720Z,10.80
2023-05-23T18:49:34.261Z,9.40
2023-05-23T18:52:01.896Z,11.95
2023-05-23T18:54:29.352Z,10.07
2023-05-23T18:56:56.876Z,13.88
2023-05-23T18:59:24.326Z,11.15
2023-05-23T19:01:51.833Z,11.20
2023-05-23T19:04:19.411Z,8.88
2023-05-23T19:06:47.332Z,11.65
2023-05-23T19:09:14.863Z,14.80
2023-05-23T19:11:42.363Z,11.55
2023-05-23T19:14:10.003Z,15.05
2023-05-23T19:16:40.013Z,11.13
2023-05-23T19:19:07.615Z,15.05
2023-05-23T19:21:35.060Z,15.70
2023-05-23T19:24:07.417Z,15.93
2023-05-23T19:26:37.317Z,14.48
2023-05-23T19:29:06.224Z,17.67
2023-05-23T19:31:34.578Z,22.02
2023-05-23T19:34:02.256Z,16.40
2023-05-23T19:36:29.853Z,21.42
2023-05-23T19:38:57.490Z,20.23
2023-05-23T19:41:25.585Z,21.85
2023-05-23T19:43:54.405Z,20.30
2023-05-23T19:46:22.227Z,20.77
2023-05-23T19:48:50.032Z,25.92
2023-05-23T19:51:17.697Z,17.13
2023-05-23T19:53:45.202Z,24.48
2023-05-23T19:56:13.312Z,22.75
2023-05-23T19:58:41.262Z,22.48
2023-05-23T20:01:09.870Z,22.65
2023-05-23T20:03:38.564Z,24.67
2023-05-23T20:06:08.109Z,21.83
2023-05-23T20:08:35.986Z,22.05
2023-05-23T20:11:04.785Z,23.88
2023-05-23T20:13:33.979Z,23.88
2023-05-23T20:16:03.058Z,20.30
2023-05-23T20:18:31.484Z,20.85
2023-05-23T20:20:59.536Z,18.17
2023-05-23T20:23:29.529Z,15.60
2023-05-23T20:25:57.283Z,15.25
2023-05-23T20:28:24.747Z,17.30
2023-05-23T20:30:53.176Z,22.05
2023-05-23T20:33:21.895Z,19.83
2023-05-23T20:35:49.802Z,19.20
2023-05-23T20:38:19.918Z,19.42
2023-05-23T20:40:52.221Z,20.67
2023-05-23T20:43:22.329Z,20.23
2023-05-23T20:45:50.517Z,25.88
2023-05-23T20:48:18.087Z,15.25
2023-05-23T20:50:45.642Z,20.13
2023-05-23T20:53:13.196Z,24.83
2023-05-23T20:55:41.022Z,17.85
2023-05-23T20:58:08.816Z,25.25
2023-05-23T21:00:36.345Z,13.77
2023-05-23T21:03:04.011Z,18.50
2023-05-23T21:05:31.502Z,16.95
2023-05-23T21:07:58.993Z,14.85
2023-05-23T21:10:26.679Z,16.08
2023-05-23T21:12:54.268Z,15.00
2023-05-23T21:15:21.877Z,11.60
2023-05-23T21:17:51.417Z,15.95
2023-05-23T21:20:22.282Z,16.63
2023-05-23T21:22:49.863Z,14.73
2023-05-23T21:25:18.006Z,20.52
2023-05-23T21:27:45.591Z,15.98
2023-05-23T21:30:14.936Z,12.23
2023-05-23T21:32:43.705Z,13.70
2023-05-23T21:35:11.485Z,15.93
2023-05-23T21:37:39.069Z,13.45
2023-05-23T21:40:07.344Z,18.63
2023-05-23T21:42:34.931Z,18.65
2023-05-23T21:45:02.548Z,29.08
2023-05-23T21:47:30.254Z,27.92
2023-05-23T21:49:57.829Z,24.15
2023-05-23T21:52:25.458Z,30.02
2023-05-23T21:54:52.998Z,22.35
2023-05-23T21:57:20.523Z,21.13
2023-05-23T21:59:48.151Z,20.40
2023-05-23T22:02:15.818Z,19.00
2023-05-23T22:04:44.862Z,15.30
2023-05-23T22:07:12.525Z,17.88
2023-05-23T22:09:39.989Z,16.23
2023-05-23T22:12:07.768Z,19.20
2023-05-23T22:14:35.223Z,15.00
2023-05-23T22:17:04.286Z,16.45
2023-05-23T22:19:31.853Z,18.38
2023-05-23T22:22:00.744Z,12.52
2023-05-23T22:24:29.322Z,13.70
2023-05-23T22:26:58.313Z,14.13
2023-05-23T22:29:26.004Z,13.15
2023-05-23T22:31:53.527Z,16.40
2023-05-23T22:34:21.019Z,14.32
2023-05-23T22:36:48.538Z,17.33
2023-05-23T22:39:16.033Z,11.57
2023-05-23T22:41:43.617Z,8.27
2023-05-23T22:44:11.933Z,12.35
2023-05-23T22:46:42.829Z,12.77
2023-05-23T22:49:10.415Z,13.73
2023-05-23T22:51:37.815Z,10.40
2023-05-23T22:54:05.561Z,13.48
2023-05-23T22:56:33.220Z,13.25
2023-05-23T22:59:00.853Z,12.63
2023-05-23T23:01:28.381Z,10.93
2023-05-23T23:03:56.130Z,9.75
2023-05-23T23:06:23.697Z,13.32
2023-05-23T23:08:51.946Z,13.13
2023-05-23T23:11:19.457Z,10.93
2023-05-23T23:13:47.178Z,13.32
2023-05-23T23:16:14.703Z,15.93
2023-05-23T23:18:42.265Z,15.63
2023-05-23T23:21:09.827Z,12.52
2023-05-23T23:23:38.350Z,13.80
2023-05-23T23:26:05.893Z,15.18
2023-05-23T23:28:33.361Z,12.13
2023-05-23T23:31:01.136Z,14.82
2023-05-23T23:33:28.747Z,12.18
2023-05-23T23:35:56.469Z,13.63
2023-05-23T23:38:23.927Z,18.25
2023-05-23T23:40:51.510Z,12.95
2023-05-23T23:43:19.077Z,11.82
2023-05-23T23:45:46.575Z,12.10
2023-05-23T23:48:14.911Z,16.67
2023-05-23T23:50:42.689Z,12.60
2023-05-23T23:53:10.478Z,15.93
2023-05-23T23:55:37.948Z,11.82
2023-05-23T23:58:05.565Z,14.18
